Time;durP1;ratioP1;P1;durP2;ratioP2;P2;SDS_P1;SDS_P2;PMS_P1;PMS_P2;Temp;Humidity;BMP_temperature;BMP_pressure;BME280_temperature;BME280_humidity;BME280_pressure;Samples;Min_cycle;Max_cycle;Signal;HPM_P1;HPM_P2
2023/04/25 00:00:15;;;;;;;3.70;2.20;;;;;;;-143.29;100.00;62188.47;4896638;29;20032;-82
2023/04/25 00:02:41;;;;;;;8.38;2.55;;;;;;;-143.29;100.00;62188.47;4897138;29;20048;-82
2023/04/25 00:05:07;;;;;;;5.90;2.65;;;;;;;-143.29;100.00;62188.47;4897132;29;20092;-82
2023/04/25 00:07:33;;;;;;;6.03;1.92;;;;;;;-143.29;100.00;62188.47;4897344;29;20036;-82
2023/04/25 00:09:59;;;;;;;14.55;3.05;;;;;;;-143.29;100.00;62188.47;4897294;29;20040;-82
2023/04/25 00:12:24;;;;;;;4.43;2.20;;;;;;;-143.29;100.00;62188.47;4897006;29;20029;-81
2023/04/25 00:14:51;;;;;;;4.07;2.10;;;;;;;-143.29;100.00;62188.47;4897107;29;20029;-82
2023/04/25 00:17:16;;;;;;;6.00;1.88;;;;;;;-143.29;100.00;62188.47;4896925;29;20082;-82
2023/04/25 00:19:44;;;;;;;5.50;2.45;;;;;;;-143.29;100.00;62188.47;4897084;29;20060;-81
2023/04/25 00:22:10;;;;;;;5.55;1.90;;;;;;;-143.29;100.00;62188.47;4896706;29;20108;-81
2023/04/25 00:24:35;;;;;;;7.60;2.13;;;;;;;-143.29;100.00;62188.47;4897125;29;20047;-81
2023/04/25 00:27:01;;;;;;;4.93;1.80;;;;;;;-143.29;100.00;62188.47;4897326;29;20364;-81
2023/04/25 00:29:26;;;;;;;11.77;1.85;;;;;;;-143.29;100.00;62188.47;4896084;29;20387;-81
2023/04/25 00:31:51;;;;;;;6.78;2.30;;;;;;;-143.29;100.00;62188.47;4896825;29;20479;-81
2023/04/25 00:34:17;;;;;;;3.05;1.85;;;;;;;-143.29;100.00;62188.47;4896827;29;20096;-81
2023/04/25 00:36:42;;;;;;;2.85;1.83;;;;;;;-143.29;100.00;62188.47;4896879;29;20024;-81
2023/04/25 00:39:08;;;;;;;4.68;1.88;;;;;;;-143.29;100.00;62188.47;4896989;29;20069;-81
2023/04/25 00:41:33;;;;;;;6.53;2.00;;;;;;;-143.29;100.00;62188.47;4896800;29;20035;-81
2023/04/25 00:44:00;;;;;;;3.45;1.70;;;;;;;-143.29;100.00;62188.47;4896609;29;20039;-81
2023/04/25 00:46:25;;;;;;;5.45;1.95;;;;;;;-143.29;100.00;62188.47;4896788;29;20035;-81
2023/04/25 00:48:51;;;;;;;4.22;1.50;;;;;;;-143.29;100.00;62188.47;4896537;29;20028;-81
2023/04/25 00:51:20;;;;;;;6.10;1.90;;;;;;;-143.29;100.00;62188.47;4894646;29;20127;-81
2023/04/25 00:53:46;;;;;;;3.95;1.50;;;;;;;-143.29;100.00;62188.47;4896742;29;20468;-81
2023/04/25 00:56:12;;;;;;;2.50;1.27;;;;;;;-143.29;100.00;62188.47;4896759;29;20028;-81
2023/04/25 00:58:38;;;;;;;2.15;1.40;;;;;;;-143.29;100.00;62188.47;4896274;29;20506;-81
2023/04/25 01:01:04;;;;;;;4.95;2.20;;;;;;;-143.29;100.00;62188.47;4896696;29;20107;-81
2023/04/25 01:03:35;;;;;;;4.22;1.20;;;;;;;-143.29;100.00;62188.47;4896553;29;20491;-81
2023/04/25 01:06:01;;;;;;;3.70;1.50;;;;;;;-143.29;100.00;62188.47;4896596;29;20506;-81
2023/04/25 01:08:27;;;;;;;6.13;1.73;;;;;;;-143.29;100.00;62188.47;4896311;29;20436;-81
2023/04/25 01:10:52;;;;;;;5.97;1.92;;;;;;;-143.29;100.00;62188.47;4896966;29;20025;-81
2023/04/25 01:13:17;;;;;;;5.53;1.80;;;;;;;-143.29;100.00;62188.47;4896474;29;20487;-81
2023/04/25 01:15:43;;;;;;;7.72;1.55;;;;;;;-143.29;100.00;62188.47;4896584;29;20029;-81
2023/04/25 01:18:09;;;;;;;5.18;1.95;;;;;;;-143.29;100.00;62188.47;4896556;29;20029;-81
2023/04/25 01:20:38;;;;;;;3.90;1.65;;;;;;;-143.29;100.00;62188.47;4895749;29;20503;-81
2023/04/25 01:23:04;;;;;;;4.85;1.50;;;;;;;-143.29;100.00;62188.47;4896354;29;20506;-81
2023/04/25 01:25:33;;;;;;;3.92;1.20;;;;;;;-143.29;100.00;62188.47;4896620;29;20028;-81
2023/04/25 01:27:58;;;;;;;4.38;1.30;;;;;;;-143.29;100.00;62188.47;4896297;29;20051;-81
2023/04/25 01:30:26;;;;;;;5.05;1.20;;;;;;;-143.29;100.00;62188.47;4896229;29;20479;-81
2023/04/25 01:32:54;;;;;;;4.68;1.65;;;;;;;-143.29;100.00;62188.47;4897013;29;20028;-81
2023/04/25 01:35:20;;;;;;;2.83;0.98;;;;;;;-143.29;100.00;62188.47;4899872;29;20039;-81
2023/04/25 01:37:45;;;;;;;3.20;1.83;;;;;;;-143.29;100.00;62188.47;4899902;29;20032;-81
2023/04/25 01:40:12;;;;;;;7.53;1.75;;;;;;;-143.29;100.00;62188.47;4900002;29;20431;-81
2023/04/25 01:42:40;;;;;;;3.78;1.27;;;;;;;-143.29;100.00;62188.47;4900148;29;20092;-81
2023/04/25 01:45:07;;;;;;;6.95;1.95;;;;;;;-143.29;100.00;62188.47;4899812;29;20089;-81
2023/04/25 01:47:34;;;;;;;6.03;1.25;;;;;;;-143.29;100.00;62188.47;4899600;29;20041;-81
2023/04/25 01:50:00;;;;;;;5.70;1.63;;;;;;;-143.29;100.00;62188.47;4898712;29;20029;-81
2023/04/25 01:52:25;;;;;;;4.15;1.58;;;;;;;-143.29;100.00;62188.47;4899607;29;20089;-81
2023/04/25 01:54:51;;;;;;;5.13;2.08;;;;;;;-143.29;100.00;62188.47;4899480;29;20434;-81
2023/04/25 01:57:16;;;;;;;4.00;1.50;;;;;;;-143.29;100.00;62188.47;4898361;29;20424;-81
2023/04/25 01:59:43;;;;;;;4.40;1.25;;;;;;;-143.29;100.00;62188.47;4899656;29;20025;-81
2023/04/25 02:02:08;;;;;;;7.15;1.88;;;;;;;-143.29;100.00;62188.47;4899585;29;20039;-81
2023/04/25 02:04:33;;;;;;;8.98;1.55;;;;;;;-143.29;100.00;62188.47;4899438;29;20108;-81
2023/04/25 02:06:59;;;;;;;7.22;1.60;;;;;;;-143.29;100.00;62188.47;4899287;29;20022;-81
2023/04/25 02:09:24;;;;;;;5.38;1.50;;;;;;;-143.29;100.00;62188.47;4899319;29;20483;-81
2023/04/25 02:11:50;;;;;;;3.13;1.17;;;;;;;-143.29;100.00;62188.47;4899805;29;20039;-81
2023/04/25 02:14:15;;;;;;;3.22;1.40;;;;;;;-143.29;100.00;62188.47;4899641;29;20037;-81
2023/04/25 02:16:43;;;;;;;3.67;1.50;;;;;;;-143.29;100.00;62188.47;4899242;29;20033;-81
2023/04/25 02:19:09;;;;;;;4.95;1.67;;;;;;;-143.29;100.00;62188.47;4898490;29;20100;-81
2023/04/25 02:21:35;;;;;;;2.15;1.00;;;;;;;-143.29;100.00;62188.47;4898279;29;20025;-81
2023/04/25 02:24:02;;;;;;;3.83;1.40;;;;;;;-143.29;100.00;62188.47;4898881;29;20060;-81
2023/04/25 02:26:28;;;;;;;6.35;1.63;;;;;;;-143.29;100.00;62188.47;4898307;29;20495;-81
2023/04/25 02:28:53;;;;;;;4.55;1.05;;;;;;;-143.29;100.00;62188.47;4898893;29;20115;-82
2023/04/25 02:31:19;;;;;;;4.32;1.67;;;;;;;-143.29;100.00;62188.47;4899139;29;20429;-82
2023/04/25 02:33:45;;;;;;;2.80;1.23;;;;;;;-143.29;100.00;62188.47;4899134;29;20017;-82
2023/04/25 02:36:10;;;;;;;5.93;1.42;;;;;;;-143.29;100.00;62188.47;4899084;29;20476;-82
2023/04/25 02:38:35;;;;;;;5.97;1.48;;;;;;;-143.29;100.00;62188.47;4898790;29;20044;-82
2023/04/25 02:41:01;;;;;;;3.92;1.45;;;;;;;-143.29;100.00;62188.47;4899002;29;20025;-82
2023/04/25 02:43:26;;;;;;;8.18;1.40;;;;;;;-143.29;100.00;62188.47;4896891;29;20767;-81
2023/04/25 02:45:51;;;;;;;4.72;1.40;;;;;;;-143.29;100.00;62188.47;4898473;29;20029;-81
2023/04/25 02:48:17;;;;;;;5.38;1.75;;;;;;;-143.29;100.00;62188.47;4898615;29;20028;-81
2023/04/25 02:50:42;;;;;;;6.50;1.33;;;;;;;-143.29;100.00;62188.47;4898860;29;20075;-81
2023/04/25 02:53:08;;;;;;;13.63;1.65;;;;;;;-143.29;100.00;62188.47;4898599;29;20060;-81
2023/04/25 02:55:33;;;;;;;5.55;1.55;;;;;;;-143.29;100.00;62188.47;4898861;29;20111;-82
2023/04/25 02:57:58;;;;;;;4.82;1.50;;;;;;;-143.29;100.00;62188.47;4896979;29;20028;-82
2023/04/25 03:00:24;;;;;;;4.57;1.40;;;;;;;-143.29;100.00;62188.47;4898577;29;20028;-81
2023/04/25 03:02:50;;;;;;;5.57;1.30;;;;;;;-143.29;100.00;62188.47;4898455;29;20036;-82
2023/04/25 03:05:16;;;;;;;7.68;1.90;;;;;;;-143.29;100.00;62188.47;4898496;29;20080;-82
2023/04/25 03:07:43;;;;;;;4.30;1.02;;;;;;;-143.29;100.00;62188.47;4898322;29;20503;-82
2023/04/25 03:10:09;;;;;;;5.63;1.20;;;;;;;-143.29;100.00;62188.47;4898288;29;20398;-82
2023/04/25 03:12:34;;;;;;;5.20;1.40;;;;;;;-143.29;100.00;62188.47;4898003;29;20035;-82
2023/04/25 03:14:59;;;;;;;5.40;1.40;;;;;;;-143.29;100.00;62188.47;4897617;29;20032;-82
2023/04/25 03:17:25;;;;;;;3.97;1.27;;;;;;;-143.29;100.00;62188.47;4897866;29;20104;-82
2023/04/25 03:19:50;;;;;;;7.07;1.35;;;;;;;-143.29;100.00;62188.47;4898119;29;20424;-82
2023/04/25 03:22:15;;;;;;;4.47;1.48;;;;;;;-143.29;100.00;62188.47;4898003;29;20539;-81
2023/04/25 03:24:41;;;;;;;10.55;1.55;;;;;;;-143.29;100.00;62188.47;4897951;29;20417;-82
2023/04/25 03:27:06;;;;;;;5.60;1.85;;;;;;;-143.29;100.00;62188.47;4897564;29;20020;-82
2023/04/25 03:29:32;;;;;;;5.57;1.60;;;;;;;-143.29;100.00;62188.47;4897974;29;20060;-81
2023/04/25 03:31:57;;;;;;;8.52;1.48;;;;;;;-143.29;100.00;62188.47;4897904;29;20024;-82
2023/04/25 03:34:23;;;;;;;4.63;1.23;;;;;;;-143.29;100.00;62188.47;4897775;29;20080;-81
2023/04/25 03:36:49;;;;;;;2.90;1.13;;;;;;;-143.29;100.00;62188.47;4898111;29;20039;-81
2023/04/25 03:39:14;;;;;;;5.78;2.33;;;;;;;-143.29;100.00;62188.47;4897971;29;20024;-81
2023/04/25 03:41:40;;;;;;;7.60;1.50;;;;;;;-143.29;100.00;62188.47;4897451;29;20032;-81
2023/04/25 03:44:05;;;;;;;3.53;1.08;;;;;;;-143.29;100.00;62188.47;4894463;29;20083;-82
2023/04/25 03:46:30;;;;;;;4.07;1.02;;;;;;;-143.29;100.00;62188.47;4896213;29;20033;-81
2023/04/25 03:48:56;;;;;;;4.40;1.65;;;;;;;-143.29;100.00;62188.47;4897261;29;20484;-81
2023/04/25 03:51:21;;;;;;;2.55;0.88;;;;;;;-143.29;100.00;62188.47;4897716;29;20487;-81
2023/04/25 03:53:47;;;;;;;5.18;1.40;;;;;;;-143.29;100.00;62188.47;4897497;29;20024;-81
2023/04/25 03:56:13;;;;;;;4.80;1.30;;;;;;;-143.29;100.00;62188.47;4896726;29;20033;-81
2023/04/25 03:58:38;;;;;;;3.40;1.20;;;;;;;-143.29;100.00;62188.47;4897160;29;20029;-81
2023/04/25 04:01:07;;;;;;;4.78;1.25;;;;;;;-143.29;100.00;62188.47;4897554;29;20368;-81
2023/04/25 04:03:34;;;;;;;6.15;1.27;;;;;;;-143.29;100.00;62188.47;4897172;29;20033;-81
2023/04/25 04:05:59;;;;;;;7.70;1.60;;;;;;;-143.29;100.00;62188.47;4897287;29;20017;-81
2023/04/25 04:08:25;;;;;;;3.58;1.25;;;;;;;-143.29;100.00;62188.47;4897089;29;20104;-81
2023/04/25 04:10:50;;;;;;;4.60;1.17;;;;;;;-143.29;100.00;62188.47;4897325;29;20558;-81
2023/04/25 04:13:15;;;;;;;3.80;1.17;;;;;;;-143.29;100.00;62188.47;4896092;29;20028;-81
2023/04/25 04:15:41;;;;;;;4.97;1.33;;;;;;;-143.29;100.00;62188.47;4897003;29;20451;-81
2023/04/25 04:18:06;;;;;;;2.90;1.35;;;;;;;-143.29;100.00;62188.47;4897102;29;20419;-81
2023/04/25 04:20:31;;;;;;;4.00;1.23;;;;;;;-143.29;100.00;62188.47;4897149;29;20029;-81
2023/04/25 04:22:57;;;;;;;4.05;1.40;;;;;;;-143.29;100.00;62188.47;4897090;29;20505;-81
2023/04/25 04:25:22;;;;;;;2.83;1.00;;;;;;;-143.29;100.00;62188.47;4896812;29;20064;-81
2023/04/25 04:27:48;;;;;;;3.35;1.17;;;;;;;-143.29;100.00;62188.47;4897166;29;20412;-81
2023/04/25 04:30:13;;;;;;;6.65;1.27;;;;;;;-143.29;100.00;62188.47;4897242;29;20052;-81
2023/04/25 04:32:38;;;;;;;5.78;1.42;;;;;;;-143.29;100.00;62188.47;4896969;29;20035;-81
2023/04/25 04:35:06;;;;;;;3.75;1.55;;;;;;;-143.29;100.00;62188.47;4896939;29;20024;-81
2023/04/25 04:37:32;;;;;;;4.70;1.70;;;;;;;-143.29;100.00;62188.47;4896740;29;20059;-81
2023/04/25 04:39:57;;;;;;;6.75;1.20;;;;;;;-143.29;100.00;62188.47;4896781;29;20040;-81
2023/04/25 04:42:25;;;;;;;2.50;1.08;;;;;;;-143.29;100.00;62188.47;4896831;29;20024;-81
2023/04/25 04:44:51;;;;;;;3.38;1.30;;;;;;;-143.29;100.00;62188.47;4894577;29;20127;-81
2023/04/25 04:47:17;;;;;;;3.70;1.23;;;;;;;-143.29;100.00;62188.47;4896696;29;20029;-81
2023/04/25 04:49:42;;;;;;;6.03;1.67;;;;;;;-143.29;100.00;62188.47;4896801;29;20059;-81
2023/04/25 04:52:07;;;;;;;5.63;1.30;;;;;;;-143.29;100.00;62188.47;4896950;29;20518;-81
2023/04/25 04:54:35;;;;;;;4.65;1.02;;;;;;;-143.29;100.00;62188.47;4896664;29;20479;-81
2023/04/25 04:57:00;;;;;;;4.80;1.35;;;;;;;-143.29;100.00;62188.47;4896511;29;20028;-81
2023/04/25 04:59:25;;;;;;;10.38;2.17;;;;;;;-143.29;100.00;62188.47;4896684;29;20036;-81
2023/04/25 05:01:52;;;;;;;5.45;1.10;;;;;;;-143.29;100.00;62188.47;4896578;29;20152;-81
2023/04/25 05:04:18;;;;;;;3.53;0.98;;;;;;;-143.29;100.00;62188.47;4896672;29;20036;-81
2023/04/25 05:06:44;;;;;;;3.10;1.08;;;;;;;-143.29;100.00;62188.47;4896705;29;20033;-81
2023/04/25 05:09:09;;;;;;;4.25;1.17;;;;;;;-143.29;100.00;62188.47;4899193;29;20036;-81
2023/04/25 05:11:34;;;;;;;2.92;1.05;;;;;;;-143.29;100.00;62188.47;4900385;29;20032;-81
2023/04/25 05:14:00;;;;;;;5.45;1.35;;;;;;;-143.29;100.00;62188.47;4899648;29;20025;-81
2023/04/25 05:16:25;;;;;;;7.28;1.38;;;;;;;-143.29;100.00;62188.47;4900176;29;20475;-81
2023/04/25 05:18:51;;;;;;;7.20;1.15;;;;;;;-143.29;100.00;62188.47;4900463;29;20027;-81
2023/04/25 05:21:16;;;;;;;6.57;1.23;;;;;;;-143.29;100.00;62188.47;4900264;29;20388;-81
2023/04/25 05:23:41;;;;;;;4.20;1.23;;;;;;;-143.29;100.00;62188.47;4899322;29;20164;-80
2023/04/25 05:26:13;;;;;;;3.03;1.00;;;;;;;-143.29;100.00;62188.47;4900046;29;20029;-81
2023/04/25 05:28:39;;;;;;;5.47;1.98;;;;;;;-143.29;100.00;62188.47;4900137;29;20100;-81
2023/04/25 05:31:04;;;;;;;5.63;0.93;;;;;;;-143.29;100.00;62188.47;4900096;29;20037;-81
2023/04/25 05:33:30;;;;;;;5.13;1.25;;;;;;;-143.29;100.00;62188.47;4900009;29;20550;-81
2023/04/25 05:35:55;;;;;;;5.55;1.63;;;;;;;-143.29;100.00;62188.47;4899974;29;20029;-81
2023/04/25 05:38:20;;;;;;;4.03;1.35;;;;;;;-143.29;100.00;62188.47;4899984;29;20542;-79
2023/04/25 05:40:46;;;;;;;9.50;0.90;;;;;;;-143.29;100.00;62188.47;4899988;29;20033;-81
2023/04/25 05:43:11;;;;;;;19.25;1.30;;;;;;;-143.29;100.00;62188.47;4899296;29;20041;-80
2023/04/25 05:45:36;;;;;;;4.70;1.60;;;;;;;-143.29;100.00;62188.47;4899603;29;20029;-79
2023/04/25 05:48:02;;;;;;;7.32;1.40;;;;;;;-143.29;100.00;62188.47;4899412;29;20472;-81
2023/04/25 05:50:28;;;;;;;4.30;1.10;;;;;;;-143.29;100.00;62188.47;4899377;29;20080;-83
2023/04/25 05:52:53;;;;;;;7.63;1.95;;;;;;;-143.29;100.00;62188.47;4899042;29;20040;-80
2023/04/25 05:55:18;;;;;;;8.38;1.65;;;;;;;-143.29;100.00;62188.47;4898868;29;20039;-79
2023/04/25 05:57:45;;;;;;;6.88;1.42;;;;;;;-143.29;100.00;62188.47;4899415;29;20085;-79
2023/04/25 06:00:12;;;;;;;7.97;1.55;;;;;;;-143.29;100.00;62188.47;4899266;29;20039;-79
2023/04/25 06:02:37;;;;;;;9.82;1.67;;;;;;;-143.29;100.00;62188.47;4899095;29;20037;-78
2023/04/25 06:05:03;;;;;;;3.90;1.27;;;;;;;-143.29;100.00;62188.47;4899324;29;20032;-80
2023/04/25 06:07:29;;;;;;;15.35;2.40;;;;;;;-143.29;100.00;62188.47;4899693;29;20025;-78
2023/04/25 06:09:55;;;;;;;4.53;1.30;;;;;;;-143.29;100.00;62188.47;4898497;29;20459;-78
2023/04/25 06:12:20;;;;;;;12.27;2.13;;;;;;;-143.29;100.00;62188.47;4899180;29;20053;-84
2023/04/25 06:14:46;;;;;;;5.25;1.27;;;;;;;-143.29;100.00;62188.47;4899315;29;20391;-79
2023/04/25 06:17:11;;;;;;;12.02;1.33;;;;;;;-143.29;100.00;62188.47;4899216;29;20499;-79
2023/04/25 06:19:37;;;;;;;6.95;1.58;;;;;;;-143.29;100.00;62188.47;4898478;29;20068;-78
2023/04/25 06:22:02;;;;;;;12.43;2.10;;;;;;;-143.29;100.00;62188.47;4898159;29;20476;-79
2023/04/25 06:24:28;;;;;;;5.95;1.55;;;;;;;-143.29;100.00;62188.47;4898323;29;20117;-79
2023/04/25 06:26:54;;;;;;;10.13;1.70;;;;;;;-143.29;100.00;62188.47;4899142;29;20057;-78
2023/04/25 06:29:19;;;;;;;8.05;2.13;;;;;;;-143.29;100.00;62188.47;4899043;29;20020;-81
2023/04/25 06:31:45;;;;;;;11.52;1.30;;;;;;;-143.29;100.00;62188.47;4917839;29;20031;-80
2023/04/25 06:34:10;;;;;;;5.97;1.25;;;;;;;-143.29;100.00;62188.47;4917820;29;20514;-79
2023/04/25 06:36:36;;;;;;;13.60;1.95;;;;;;;-143.29;100.00;62188.47;4917740;29;20024;-80
2023/04/25 06:39:01;;;;;;;10.43;1.90;;;;;;;-143.29;100.00;62188.47;4917119;29;20036;-80
2023/04/25 06:41:27;;;;;;;7.20;1.58;;;;;;;-143.29;100.00;62188.47;4917327;29;20378;-80
2023/04/25 06:43:52;;;;;;;7.32;2.08;;;;;;;-143.29;100.00;62188.47;4899786;29;20040;-80
2023/04/25 06:46:18;;;;;;;9.25;1.50;;;;;;;-143.29;100.00;62188.47;4898721;29;20033;-80
2023/04/25 06:48:43;;;;;;;5.97;1.58;;;;;;;-143.29;100.00;62188.47;4898555;29;20093;-80
2023/04/25 06:51:08;;;;;;;6.55;1.73;;;;;;;-143.29;100.00;62188.47;4899002;29;20383;-80
2023/04/25 06:53:34;;;;;;;8.63;1.70;;;;;;;-143.29;100.00;62188.47;4898476;29;20037;-80
2023/04/25 06:55:59;;;;;;;5.60;1.35;;;;;;;-143.29;100.00;62188.47;4897217;29;20075;-80
2023/04/25 06:58:25;;;;;;;6.38;1.52;;;;;;;-143.29;100.00;62188.47;4898744;29;20035;-80
2023/04/25 07:00:51;;;;;;;5.88;1.67;;;;;;;-143.29;100.00;62188.47;4898400;29;20041;-79
2023/04/25 07:03:16;;;;;;;3.83;1.20;;;;;;;-143.29;100.00;62188.47;4898455;29;20033;-80
2023/04/25 07:05:42;;;;;;;4.63;1.17;;;;;;;-143.29;100.00;62188.47;4898330;29;20036;-81
2023/04/25 07:08:07;;;;;;;6.03;1.75;;;;;;;-143.29;100.00;62188.47;4898108;29;20035;-81
2023/04/25 07:10:32;;;;;;;6.32;1.40;;;;;;;-143.29;100.00;62188.47;4897462;29;20557;-82
2023/04/25 07:12:58;;;;;;;6.47;1.20;;;;;;;-143.29;100.00;62188.47;4897365;29;20062;-80
2023/04/25 07:15:23;;;;;;;3.92;1.05;;;;;;;-143.29;100.00;62188.47;4898287;29;20156;-80
2023/04/25 07:17:48;;;;;;;3.42;1.00;;;;;;;-143.29;100.00;62188.47;4897999;29;20021;-81
2023/04/25 07:20:14;;;;;;;6.68;1.60;;;;;;;-143.29;100.00;62188.47;4896640;29;20498;-81
2023/04/25 07:22:39;;;;;;;5.55;1.40;;;;;;;-143.29;100.00;62188.47;4897062;29;20028;-81
2023/04/25 07:25:05;;;;;;;5.28;1.60;;;;;;;-143.29;100.00;62188.47;4896461;29;20096;-81
2023/04/25 07:27:31;;;;;;;3.80;0.95;;;;;;;-143.29;100.00;62188.47;4896310;29;20071;-81
2023/04/25 07:29:57;;;;;;;5.78;1.50;;;;;;;-143.29;100.00;62188.47;4902430;29;20060;-80
2023/04/25 07:32:22;;;;;;;3.78;1.13;;;;;;;-143.29;100.00;62188.47;4916172;29;20083;-78
2023/04/25 07:34:48;;;;;;;3.30;1.05;;;;;;;-143.29;100.00;62188.47;4905035;29;20036;-81
2023/04/25 07:37:14;;;;;;;7.88;1.35;;;;;;;-143.29;100.00;62188.47;4896596;29;20064;-79
2023/04/25 07:39:39;;;;;;;3.47;0.85;;;;;;;-143.29;100.00;62188.47;4896760;29;20017;-81
2023/04/25 07:42:07;;;;;;;4.95;0.93;;;;;;;-143.29;100.00;62188.47;4897585;29;20021;-81
2023/04/25 07:44:38;;;;;;;6.65;1.35;;;;;;;-143.29;100.00;62188.47;4897459;29;20111;-82
2023/04/25 07:47:06;;;;;;;4.95;0.90;;;;;;;-143.29;100.00;62188.47;4896931;29;20033;-81
2023/04/25 07:49:36;;;;;;;6.68;1.35;;;;;;;-143.29;100.00;62188.47;4896743;29;20473;-82
2023/04/25 07:52:02;;;;;;;5.03;1.05;;;;;;;-143.29;100.00;62188.47;4897523;29;20099;-83
2023/04/25 07:54:27;;;;;;;2.60;0.93;;;;;;;-143.29;100.00;62188.47;4896850;29;20032;-81
2023/04/25 07:56:53;;;;;;;3.55;0.93;;;;;;;-143.29;100.00;62188.47;4897179;29;20431;-83
2023/04/25 07:59:18;;;;;;;2.88;0.90;;;;;;;-143.29;100.00;62188.47;4895633;29;20483;-82
2023/04/25 08:01:44;;;;;;;5.18;0.88;;;;;;;-143.29;100.00;62188.47;4896306;29;20103;-82
2023/04/25 08:04:10;;;;;;;5.07;1.02;;;;;;;-143.29;100.00;62188.47;4897014;29;20052;-81
2023/04/25 08:06:35;;;;;;;4.88;1.10;;;;;;;-143.29;100.00;62188.47;4897099;29;20068;-80
2023/04/25 08:09:01;;;;;;;2.20;0.63;;;;;;;-143.29;100.00;62188.47;4895537;29;20072;-80
2023/04/25 08:11:26;;;;;;;3.78;0.98;;;;;;;-143.29;100.00;62188.47;4896972;29;20107;-82
2023/04/25 08:13:52;;;;;;;5.70;0.90;;;;;;;-143.29;100.00;62188.47;4897199;29;20043;-83
2023/04/25 08:16:17;;;;;;;3.83;0.90;;;;;;;-143.29;100.00;62188.47;4897140;29;20472;-82
2023/04/25 08:18:42;;;;;;;4.07;1.00;;;;;;;-143.29;100.00;62188.47;4895696;29;20040;-81
2023/04/25 08:21:11;;;;;;;3.65;0.88;;;;;;;-143.29;100.00;62188.47;4895316;29;20047;-81
2023/04/25 08:23:36;;;;;;;2.92;0.80;;;;;;;-143.29;100.00;62188.47;4896002;29;20120;-81
2023/04/25 08:26:02;;;;;;;3.13;0.90;;;;;;;-143.29;100.00;62188.47;4897243;29;20115;-81
2023/04/25 08:28:28;;;;;;;3.13;0.93;;;;;;;-143.29;100.00;62188.47;4895841;29;20399;-81
2023/04/25 08:30:53;;;;;;;8.50;1.27;;;;;;;-143.29;100.00;62188.47;4908919;29;20039;-81
2023/04/25 08:33:19;;;;;;;2.63;0.70;;;;;;;-143.29;100.00;62188.47;4915695;29;20055;-81
2023/04/25 08:35:45;;;;;;;2.85;0.75;;;;;;;-143.29;100.00;62188.47;4910307;29;20439;-81
2023/04/25 08:38:10;;;;;;;2.58;0.65;;;;;;;-143.29;100.00;62188.47;4896301;29;20025;-81
2023/04/25 08:40:38;;;;;;;1.45;0.73;;;;;;;-143.29;100.00;62188.47;4894811;29;20035;-81
2023/04/25 08:43:11;;;;;;;2.30;0.73;;;;;;;-143.29;100.00;62188.47;4896649;29;20505;-81
2023/04/25 08:45:42;;;;;;;2.92;0.65;;;;;;;-143.29;100.00;62188.47;4896090;29;20064;-82
2023/04/25 08:48:13;;;;;;;1.42;0.40;;;;;;;-143.29;100.00;62188.47;4897018;29;20028;-82
2023/04/25 08:50:43;;;;;;;3.60;0.87;;;;;;;-143.29;100.00;62188.47;4896534;29;20067;-82
2023/04/25 08:53:10;;;;;;;1.63;0.60;;;;;;;-143.29;100.00;62188.47;4896327;29;20388;-82
2023/04/25 08:55:41;;;;;;;2.78;0.55;;;;;;;-143.29;100.00;62188.47;4895549;29;20063;-82
2023/04/25 08:58:07;;;;;;;3.53;0.55;;;;;;;-143.29;100.00;62188.47;4896970;29;20379;-82
2023/04/25 09:00:32;;;;;;;3.20;0.63;;;;;;;-143.29;100.00;62188.47;4896529;29;20036;-81
2023/04/25 09:02:58;;;;;;;3.03;1.27;;;;;;;-143.29;100.00;62188.47;4896498;29;20028;-82
2023/04/25 09:05:24;;;;;;;3.85;1.25;;;;;;;-143.29;100.00;62188.47;4894787;29;20451;-83
2023/04/25 09:07:50;;;;;;;5.43;0.80;;;;;;;-143.29;100.00;62188.47;4894671;29;20052;-84
2023/04/25 09:10:15;;;;;;;3.35;0.40;;;;;;;-143.29;100.00;62188.47;4895199;29;20488;-83
2023/04/25 09:12:41;;;;;;;4.38;0.73;;;;;;;-143.29;100.00;62188.47;4895344;29;20032;-87
2023/04/25 09:15:09;;;;;;;3.33;0.63;;;;;;;-143.29;100.00;62188.47;4895070;29;20036;-85
2023/04/25 09:17:34;;;;;;;3.17;0.90;;;;;;;-143.29;100.00;62188.47;4894322;29;20052;-85
2023/04/25 09:20:11;;;;;;;5.95;0.80;;;;;;;-143.29;100.00;62188.47;4895454;29;20040;-84
2023/04/25 09:22:38;;;;;;;3.63;0.75;;;;;;;-143.29;100.00;62188.47;4895023;29;20031;-85
2023/04/25 09:25:14;;;;;;;4.40;0.70;;;;;;;-143.29;100.00;62188.47;4896311;29;20104;-85
2023/04/25 09:27:54;;;;;;;4.93;0.57;;;;;;;-143.29;100.00;62188.47;4895433;29;20024;-86
2023/04/25 09:30:29;;;;;;;5.43;0.80;;;;;;;-143.29;100.00;62188.47;4897459;29;20037;-84
2023/04/25 09:33:05;;;;;;;3.00;0.57;;;;;;;-143.29;100.00;62188.47;4896460;29;20039;-84
2023/04/25 09:35:38;;;;;;;3.72;0.80;;;;;;;-143.29;100.00;62188.47;4895666;29;20064;-84
2023/04/25 09:38:12;;;;;;;8.85;0.90;;;;;;;-143.29;100.00;62188.47;4877507;29;20029;-83
2023/04/25 09:40:45;;;;;;;6.60;0.75;;;;;;;-143.29;100.00;62188.47;4885403;29;20448;-83
2023/04/25 09:43:18;;;;;;;3.22;0.55;;;;;;;-143.29;100.00;62188.47;4894428;29;20424;-84
2023/04/25 09:45:45;;;;;;;6.80;0.73;;;;;;;-143.29;100.00;62188.47;4895998;29;20123;-83
2023/04/25 09:48:12;;;;;;;4.30;1.10;;;;;;;-143.29;100.00;62188.47;4894456;29;20048;-84
2023/04/25 09:50:39;;;;;;;2.85;0.68;;;;;;;-143.29;100.00;62188.47;4895853;29;20028;-84
2023/04/25 09:53:05;;;;;;;3.63;0.68;;;;;;;-143.29;100.00;62188.47;4895375;29;20032;-85
2023/04/25 09:55:32;;;;;;;4.05;0.52;;;;;;;-143.29;100.00;62188.47;4898766;29;20032;-85
2023/04/25 09:58:03;;;;;;;1.55;0.47;;;;;;;-143.29;100.00;62188.47;4899393;29;20032;-84
2023/04/25 10:00:30;;;;;;;3.40;0.73;;;;;;;-143.29;100.00;62188.47;4899405;29;20052;-84
2023/04/25 10:02:57;;;;;;;2.00;0.50;;;;;;;-143.29;100.00;62188.47;4897807;29;20293;-84
2023/04/25 10:05:24;;;;;;;3.42;0.75;;;;;;;-143.29;100.00;62188.47;4880555;29;20100;-84
2023/04/25 10:07:51;;;;;;;3.85;0.60;;;;;;;-143.29;100.00;62188.47;4883054;29;20052;-87
2023/04/25 10:10:18;;;;;;;5.75;0.70;;;;;;;-143.29;100.00;62188.47;4897304;29;20028;-84
2023/04/25 10:12:44;;;;;;;3.83;0.65;;;;;;;-143.29;100.00;62188.47;4897437;29;20029;-85
2023/04/25 10:15:11;;;;;;;1.50;0.45;;;;;;;-143.29;100.00;62188.47;4898784;29;20032;-85
2023/04/25 10:17:36;;;;;;;3.78;0.47;;;;;;;-143.29;100.00;62188.47;4896814;29;20088;-84
2023/04/25 10:20:08;;;;;;;4.82;0.52;;;;;;;-143.29;100.00;62188.47;4898441;29;20028;-85
2023/04/25 10:22:36;;;;;;;3.13;0.90;;;;;;;-143.29;100.00;62188.47;4898256;29;20052;-86
2023/04/25 10:25:03;;;;;;;1.80;0.50;;;;;;;-143.29;100.00;62188.47;4896976;29;20033;-86
2023/04/25 10:27:30;;;;;;;2.50;0.60;;;;;;;-143.29;100.00;62188.47;4898727;29;20028;-85
2023/04/25 10:30:06;;;;;;;3.78;0.40;;;;;;;-143.29;100.00;62188.47;4897684;29;20506;-85
2023/04/25 10:32:34;;;;;;;4.82;0.88;;;;;;;-143.29;100.00;62188.47;4896715;29;20155;-85
2023/04/25 10:35:13;;;;;;;1.67;0.50;;;;;;;-143.29;100.00;62188.47;4898593;29;20096;-85
2023/04/25 10:37:57;;;;;;;4.80;0.80;;;;;;;-143.29;100.00;62188.47;4898751;29;20032;-85
2023/04/25 10:40:23;;;;;;;3.45;0.80;;;;;;;-143.29;100.00;62188.47;4897392;29;20043;-85
2023/04/25 10:42:48;;;;;;;2.95;0.93;;;;;;;-143.29;100.00;62188.47;4898457;29;20032;-87
2023/04/25 10:45:14;;;;;;;5.47;0.90;;;;;;;-143.29;100.00;62188.47;4897665;29;20159;-87
2023/04/25 10:47:45;;;;;;;2.05;0.70;;;;;;;-143.29;100.00;62188.47;4899225;29;20028;-86
2023/04/25 10:50:15;;;;;;;5.47;0.88;;;;;;;-143.29;100.00;62188.47;4901431;29;20025;-91
2023/04/25 10:52:40;;;;;;;3.75;0.52;;;;;;;-143.29;100.00;62188.47;4898450;29;20108;-89
2023/04/25 10:55:06;;;;;;;2.85;0.80;;;;;;;-143.29;100.00;62188.47;4897799;29;20112;-88
2023/04/25 10:57:40;;;;;;;3.00;0.52;;;;;;;-143.29;100.00;62188.47;4896217;29;20104;-88
2023/04/25 11:00:16;;;;;;;1.70;0.63;;;;;;;-143.29;100.00;62188.47;4897403;29;20040;-85
2023/04/25 11:02:52;;;;;;;6.43;1.30;;;;;;;-143.29;100.00;62188.47;4896214;29;20024;-85
2023/04/25 11:05:22;;;;;;;8.45;0.60;;;;;;;-143.29;100.00;62188.47;4897116;29;20419;-85